Woodville, New York
Current Conditions -  °F | °C
As of 7:56 PM on Monday 24 Nov 2014 (Local Time) from KART Reporting Station
Broken Clouds Broken Clouds  
Wind Chill: 13°   Ceiling: 3400
Heat Index: 13°   Visibility: 10mi
Dew Point:   Wind: 22mph
Humidity: 67%   Direction: 240°WSW
Pressure: 29.47"   Gusts: 32mph
Location:  43.8534°N, 76.251°W
Report Text: KART 250056Z AUTO 24019G28KT 10SM BKN034 13/07 A2947 RMK AO2 PK WND 23029/0044 RAE03 PRESRR SLP979 P0000 T01280067
Loading
Personal Weather Stations






























Interactive Weather Map New forecast layout! Learn more

10-Day Weather Forecast

Advertisements
Track Severe Weather on mobile